sensor_id;sensor_type;location;lat;lon;timestamp;pressure;altitude;pressure_sealevel;temperature;humidity
70323;BME280;57735;56.264;43.898;2022-12-18T00:02:02;100761.88;;;-2.93;75.92
70323;BME280;57735;56.264;43.898;2022-12-18T00:04:36;100756.66;;;-2.93;76.01
70323;BME280;57735;56.264;43.898;2022-12-18T00:07:06;100744.47;;;-2.93;75.83
70323;BME280;57735;56.264;43.898;2022-12-18T00:09:37;100740.34;;;-2.98;75.78
70323;BME280;57735;56.264;43.898;2022-12-18T00:12:08;100727.25;;;-2.97;75.87
70323;BME280;57735;56.264;43.898;2022-12-18T00:14:39;100723.91;;;-3.00;75.87
70323;BME280;57735;56.264;43.898;2022-12-18T00:17:10;100703.03;;;-3.00;76.03
70323;BME280;57735;56.264;43.898;2022-12-18T00:19:40;100701.16;;;-2.97;76.15
70323;BME280;57735;56.264;43.898;2022-12-18T00:22:20;100690.56;;;-2.92;75.87
70323;BME280;57735;56.264;43.898;2022-12-18T00:24:53;100679.38;;;-2.96;75.54
70323;BME280;57735;56.264;43.898;2022-12-18T00:27:24;100680.13;;;-2.92;75.53
70323;BME280;57735;56.264;43.898;2022-12-18T00:29:55;100663.63;;;-2.93;75.26
70323;BME280;57735;56.264;43.898;2022-12-18T00:32:25;100648.66;;;-2.88;75.44
70323;BME280;57735;56.264;43.898;2022-12-18T00:34:56;100640.78;;;-2.86;75.00
70323;BME280;57735;56.264;43.898;2022-12-18T00:37:27;100625.88;;;-2.84;74.86
70323;BME280;57735;56.264;43.898;2022-12-18T00:39:58;100630.84;;;-2.78;75.04
70323;BME280;57735;56.264;43.898;2022-12-18T00:42:29;100623.03;;;-2.78;74.82
70323;BME280;57735;56.264;43.898;2022-12-18T00:45:18;100600.41;;;-2.77;74.47
70323;BME280;57735;56.264;43.898;2022-12-18T00:47:49;100588.22;;;-2.77;74.61
70323;BME280;57735;56.264;43.898;2022-12-18T00:50:21;100581.16;;;-2.75;74.47
70323;BME280;57735;56.264;43.898;2022-12-18T00:52:52;100571.81;;;-2.81;74.40
70323;BME280;57735;56.264;43.898;2022-12-18T00:55:22;100554.59;;;-2.85;74.27
70323;BME280;57735;56.264;43.898;2022-12-18T00:57:53;100533.16;;;-2.91;74.75
70323;BME280;57735;56.264;43.898;2022-12-18T01:00:24;100538.63;;;-2.97;74.78
70323;BME280;57735;56.264;43.898;2022-12-18T01:02:55;100540.50;;;-3.01;74.93
70323;BME280;57735;56.264;43.898;2022-12-18T01:05:28;100523.00;;;-2.97;75.40
70323;BME280;57735;56.264;43.898;2022-12-18T01:07:59;100520.97;;;-2.91;74.96
70323;BME280;57735;56.264;43.898;2022-12-18T01:10:32;100503.63;;;-2.92;74.82
70323;BME280;57735;56.264;43.898;2022-12-18T01:13:02;100513.88;;;-2.87;74.76
70323;BME280;57735;56.264;43.898;2022-12-18T01:15:33;100511.91;;;-2.82;74.75
70323;BME280;57735;56.264;43.898;2022-12-18T01:18:04;100497.16;;;-2.83;74.33
70323;BME280;57735;56.264;43.898;2022-12-18T01:20:35;100494.50;;;-2.82;74.70
70323;BME280;57735;56.264;43.898;2022-12-18T01:23:06;100490.91;;;-2.79;74.89
70323;BME280;57735;56.264;43.898;2022-12-18T01:25:39;100489.88;;;-2.75;74.72
70323;BME280;57735;56.264;43.898;2022-12-18T01:28:10;100500.03;;;-2.69;74.47
70323;BME280;57735;56.264;43.898;2022-12-18T01:30:43;100508.63;;;-2.67;74.37
70323;BME280;57735;56.264;43.898;2022-12-18T01:33:13;100507.59;;;-2.63;74.10
70323;BME280;57735;56.264;43.898;2022-12-18T01:35:46;100503.16;;;-2.61;74.20
70323;BME280;57735;56.264;43.898;2022-12-18T01:38:18;100507.59;;;-2.63;74.02
70323;BME280;57735;56.264;43.898;2022-12-18T01:40:48;100496.38;;;-2.65;74.29
70323;BME280;57735;56.264;43.898;2022-12-18T01:43:19;100480.72;;;-2.65;74.22
70323;BME280;57735;56.264;43.898;2022-12-18T01:45:50;100462.44;;;-2.65;74.41
70323;BME280;57735;56.264;43.898;2022-12-18T01:48:20;100453.78;;;-2.65;74.64
70323;BME280;57735;56.264;43.898;2022-12-18T01:50:51;100439.88;;;-2.66;74.97
70323;BME280;57735;56.264;43.898;2022-12-18T01:53:23;100422.69;;;-2.70;74.78
70323;BME280;57735;56.264;43.898;2022-12-18T01:55:57;100411.75;;;-2.78;75.12
70323;BME280;57735;56.264;43.898;2022-12-18T02:01:18;100376.13;;;-2.79;75.80
70323;BME280;57735;56.264;43.898;2022-12-18T02:03:50;100362.25;;;-2.79;75.87
70323;BME280;57735;56.264;43.898;2022-12-18T02:06:33;100361.28;;;-2.77;76.01
70323;BME280;57735;56.264;43.898;2022-12-18T02:09:16;100349.28;;;-2.81;75.82
70323;BME280;57735;56.264;43.898;2022-12-18T02:12:05;100351.81;;;-2.79;76.20
70323;BME280;57735;56.264;43.898;2022-12-18T02:15:00;100355.00;;;-2.73;76.16
70323;BME280;57735;56.264;43.898;2022-12-18T02:18:14;100347.97;;;-2.71;75.55
70323;BME280;57735;56.264;43.898;2022-12-18T02:24:10;100360.41;;;-2.77;75.11
70323;BME280;57735;56.264;43.898;2022-12-18T02:26:59;100364.78;;;-2.78;75.71
70323;BME280;57735;56.264;43.898;2022-12-18T02:29:41;100353.56;;;-2.80;75.81
70323;BME280;57735;56.264;43.898;2022-12-18T02:32:20;100319.81;;;-2.83;76.22
70323;BME280;57735;56.264;43.898;2022-12-18T02:34:55;100280.91;;;-2.88;76.20
70323;BME280;57735;56.264;43.898;2022-12-18T02:37:27;100249.75;;;-2.91;76.46
70323;BME280;57735;56.264;43.898;2022-12-18T02:39:59;100235.25;;;-2.96;77.02
70323;BME280;57735;56.264;43.898;2022-12-18T02:42:31;100215.59;;;-3.03;77.11
70323;BME280;57735;56.264;43.898;2022-12-18T02:45:02;100183.97;;;-3.14;77.87
70323;BME280;57735;56.264;43.898;2022-12-18T02:47:42;100187.50;;;-3.16;78.95
70323;BME280;57735;56.264;43.898;2022-12-18T02:50:22;100178.16;;;-3.20;78.98
70323;BME280;57735;56.264;43.898;2022-12-18T02:56:05;100146.38;;;-3.28;79.74
70323;BME280;57735;56.264;43.898;2022-12-18T02:58:53;100115.88;;;-3.26;80.20
70323;BME280;57735;56.264;43.898;2022-12-18T03:04:18;100078.22;;;-3.37;80.24
70323;BME280;57735;56.264;43.898;2022-12-18T03:06:56;100079.34;;;-3.43;80.84
70323;BME280;57735;56.264;43.898;2022-12-18T03:09:35;100043.78;;;-3.44;81.29
70323;BME280;57735;56.264;43.898;2022-12-18T03:12:15;100038.50;;;-3.42;81.22
70323;BME280;57735;56.264;43.898;2022-12-18T03:15:08;100033.94;;;-3.37;81.45
70323;BME280;57735;56.264;43.898;2022-12-18T03:17:41;100023.25;;;-3.33;81.23
70323;BME280;57735;56.264;43.898;2022-12-18T03:20:18;100036.06;;;-3.28;80.55
70323;BME280;57735;56.264;43.898;2022-12-18T03:22:53;100033.09;;;-3.21;80.34
70323;BME280;57735;56.264;43.898;2022-12-18T03:25:27;100042.44;;;-3.17;79.78
70323;BME280;57735;56.264;43.898;2022-12-18T03:27:59;100057.16;;;-3.16;79.46
70323;BME280;57735;56.264;43.898;2022-12-18T03:30:34;100079.41;;;-3.08;79.46
70323;BME280;57735;56.264;43.898;2022-12-18T03:33:12;100086.16;;;-3.04;78.62
70323;BME280;57735;56.264;43.898;2022-12-18T03:35:45;100077.09;;;-2.97;79.24
70323;BME280;57735;56.264;43.898;2022-12-18T03:38:19;100089.00;;;-2.92;78.83
70323;BME280;57735;56.264;43.898;2022-12-18T03:43:38;100079.88;;;-2.83;77.96
70323;BME280;57735;56.264;43.898;2022-12-18T03:46:20;100070.13;;;-2.79;77.93
70323;BME280;57735;56.264;43.898;2022-12-18T03:49:14;100045.28;;;-2.69;78.42
70323;BME280;57735;56.264;43.898;2022-12-18T03:52:04;100026.34;;;-2.73;77.31
70323;BME280;57735;56.264;43.898;2022-12-18T03:54:37;100019.09;;;-2.68;77.50
70323;BME280;57735;56.264;43.898;2022-12-18T03:57:17;100033.69;;;-2.64;77.06
70323;BME280;57735;56.264;43.898;2022-12-18T03:59:54;100026.63;;;-2.62;77.24
70323;BME280;57735;56.264;43.898;2022-12-18T04:02:26;100021.16;;;-2.57;77.16
70323;BME280;57735;56.264;43.898;2022-12-18T04:05:01;100021.94;;;-2.55;77.06
70323;BME280;57735;56.264;43.898;2022-12-18T04:07:33;100020.09;;;-2.53;76.64
70323;BME280;57735;56.264;43.898;2022-12-18T04:10:07;100012.19;;;-2.52;77.31
70323;BME280;57735;56.264;43.898;2022-12-18T04:12:44;100004.19;;;-2.49;77.52
70323;BME280;57735;56.264;43.898;2022-12-18T04:15:15;100004.94;;;-2.47;77.50
70323;BME280;57735;56.264;43.898;2022-12-18T04:17:49;99998.97;;;-2.49;77.15
70323;BME280;57735;56.264;43.898;2022-12-18T04:20:20;99987.59;;;-2.48;77.71
70323;BME280;57735;56.264;43.898;2022-12-18T04:22:51;99975.66;;;-2.52;77.60
70323;BME280;57735;56.264;43.898;2022-12-18T04:25:22;99984.31;;;-2.51;77.47
70323;BME280;57735;56.264;43.898;2022-12-18T04:27:53;99978.44;;;-2.55;77.51
70323;BME280;57735;56.264;43.898;2022-12-18T04:30:23;99974.13;;;-2.56;77.67
70323;BME280;57735;56.264;43.898;2022-12-18T04:32:54;99972.44;;;-2.57;77.74
70323;BME280;57735;56.264;43.898;2022-12-18T04:35:25;99959.16;;;-2.52;77.77
70323;BME280;57735;56.264;43.898;2022-12-18T04:38:05;99954.03;;;-2.54;77.51
70323;BME280;57735;56.264;43.898;2022-12-18T04:40:37;99952.25;;;-2.53;77.68
70323;BME280;57735;56.264;43.898;2022-12-18T04:43:08;99947.13;;;-2.55;77.64
70323;BME280;57735;56.264;43.898;2022-12-18T04:45:39;99948.97;;;-2.57;77.53
70323;BME280;57735;56.264;43.898;2022-12-18T04:48:10;99943.66;;;-2.55;77.64
70323;BME280;57735;56.264;43.898;2022-12-18T04:50:41;99944.34;;;-2.52;77.39
70323;BME280;57735;56.264;43.898;2022-12-18T04:53:11;99944.84;;;-2.45;77.48
70323;BME280;57735;56.264;43.898;2022-12-18T04:55:44;99940.38;;;-2.43;77.34
70323;BME280;57735;56.264;43.898;2022-12-18T04:58:15;99938.53;;;-2.41;77.08
70323;BME280;57735;56.264;43.898;2022-12-18T05:00:49;99928.78;;;-2.37;77.00
70323;BME280;57735;56.264;43.898;2022-12-18T05:03:20;99929.56;;;-2.35;76.80
70323;BME280;57735;56.264;43.898;2022-12-18T05:05:53;99920.69;;;-2.33;77.07
70323;BME280;57735;56.264;43.898;2022-12-18T05:08:24;99907.47;;;-2.30;77.01
70323;BME280;57735;56.264;43.898;2022-12-18T05:11:05;99907.56;;;-2.31;76.89
70323;BME280;57735;56.264;43.898;2022-12-18T05:13:37;99899.06;;;-2.35;76.51
70323;BME280;57735;56.264;43.898;2022-12-18T05:16:08;99903.44;;;-2.35;76.88
70323;BME280;57735;56.264;43.898;2022-12-18T05:18:42;99901.75;;;-2.36;77.04
70323;BME280;57735;56.264;43.898;2022-12-18T05:21:13;99911.16;;;-2.34;76.82
70323;BME280;57735;56.264;43.898;2022-12-18T05:23:44;99899.56;;;-2.28;77.11
70323;BME280;57735;56.264;43.898;2022-12-18T05:26:16;99900.91;;;-2.21;77.08
70323;BME280;57735;56.264;43.898;2022-12-18T05:28:50;99893.84;;;-2.19;76.92
70323;BME280;57735;56.264;43.898;2022-12-18T05:31:21;99889.28;;;-2.16;76.89
70323;BME280;57735;56.264;43.898;2022-12-18T05:33:52;99873.34;;;-2.11;77.07
70323;BME280;57735;56.264;43.898;2022-12-18T05:36:25;99867.22;;;-2.10;76.83
70323;BME280;57735;56.264;43.898;2022-12-18T05:38:56;99861.16;;;-2.11;76.73
70323;BME280;57735;56.264;43.898;2022-12-18T05:41:27;99858.53;;;-2.11;76.64
70323;BME280;57735;56.264;43.898;2022-12-18T05:43:59;99860.38;;;-2.13;76.50
70323;BME280;57735;56.264;43.898;2022-12-18T05:46:30;99862.84;;;-2.09;76.73
70323;BME280;57735;56.264;43.898;2022-12-18T05:49:01;99856.69;;;-2.08;76.56
70323;BME280;57735;56.264;43.898;2022-12-18T05:51:31;99871.34;;;-2.06;76.11
70323;BME280;57735;56.264;43.898;2022-12-18T05:54:02;99867.72;;;-2.03;76.15
70323;BME280;57735;56.264;43.898;2022-12-18T05:56:33;99862.28;;;-2.00;75.87
70323;BME280;57735;56.264;43.898;2022-12-18T05:59:06;99858.97;;;-2.02;75.69
70323;BME280;57735;56.264;43.898;2022-12-18T06:01:37;99860.72;;;-2.03;75.63
70323;BME280;57735;56.264;43.898;2022-12-18T06:04:08;99850.84;;;-1.98;75.81
70323;BME280;57735;56.264;43.898;2022-12-18T06:06:39;99838.44;;;-1.94;75.34
70323;BME280;57735;56.264;43.898;2022-12-18T06:09:17;99840.06;;;-1.92;75.63
70323;BME280;57735;56.264;43.898;2022-12-18T06:11:48;99840.97;;;-1.93;75.33
70323;BME280;57735;56.264;43.898;2022-12-18T06:14:18;99839.97;;;-1.90;75.37
70323;BME280;57735;56.264;43.898;2022-12-18T06:16:52;99839.03;;;-1.89;75.35
70323;BME280;57735;56.264;43.898;2022-12-18T06:19:22;99835.66;;;-1.91;75.31
70323;BME280;57735;56.264;43.898;2022-12-18T06:21:53;99834.84;;;-1.92;75.57
70323;BME280;57735;56.264;43.898;2022-12-18T06:24:24;99831.97;;;-1.87;75.59
70323;BME280;57735;56.264;43.898;2022-12-18T06:26:55;99835.78;;;-1.79;75.83
70323;BME280;57735;56.264;43.898;2022-12-18T06:29:26;99824.91;;;-1.71;75.92
70323;BME280;57735;56.264;43.898;2022-12-18T06:31:57;99821.16;;;-1.67;75.47
70323;BME280;57735;56.264;43.898;2022-12-18T06:34:32;99815.09;;;-1.67;75.46
70323;BME280;57735;56.264;43.898;2022-12-18T06:37:03;99812.59;;;-1.69;75.53
70323;BME280;57735;56.264;43.898;2022-12-18T06:39:34;99808.94;;;-1.66;75.67
70323;BME280;57735;56.264;43.898;2022-12-18T06:42:05;99800.38;;;-1.68;75.61
70323;BME280;57735;56.264;43.898;2022-12-18T06:44:35;99815.22;;;-1.69;75.41
70323;BME280;57735;56.264;43.898;2022-12-18T06:47:09;99803.63;;;-1.65;75.52
70323;BME280;57735;56.264;43.898;2022-12-18T06:49:39;99790.47;;;-1.63;75.39
70323;BME280;57735;56.264;43.898;2022-12-18T06:52:10;99782.47;;;-1.60;75.66
70323;BME280;57735;56.264;43.898;2022-12-18T06:54:41;99787.78;;;-1.62;75.52
70323;BME280;57735;56.264;43.898;2022-12-18T06:57:12;99779.00;;;-1.61;75.40
70323;BME280;57735;56.264;43.898;2022-12-18T06:59:43;99769.31;;;-1.59;75.55
70323;BME280;57735;56.264;43.898;2022-12-18T07:02:13;99776.31;;;-1.59;75.41
70323;BME280;57735;56.264;43.898;2022-12-18T07:04:44;99763.25;;;-1.59;75.34
70323;BME280;57735;56.264;43.898;2022-12-18T07:07:15;99760.06;;;-1.64;75.55
70323;BME280;57735;56.264;43.898;2022-12-18T07:09:49;99759.59;;;-1.71;75.44
70323;BME280;57735;56.264;43.898;2022-12-18T07:12:20;99755.75;;;-1.65;75.57
70323;BME280;57735;56.264;43.898;2022-12-18T07:14:51;99746.91;;;-1.63;75.17
70323;BME280;57735;56.264;43.898;2022-12-18T07:17:22;99756.91;;;-1.69;75.00
70323;BME280;57735;56.264;43.898;2022-12-18T07:19:52;99754.19;;;-1.68;75.15
70323;BME280;57735;56.264;43.898;2022-12-18T07:22:25;99749.16;;;-1.71;74.85
70323;BME280;57735;56.264;43.898;2022-12-18T07:24:56;99745.50;;;-1.68;75.05
70323;BME280;57735;56.264;43.898;2022-12-18T07:27:27;99746.25;;;-1.66;75.13
70323;BME280;57735;56.264;43.898;2022-12-18T07:29:57;99728.34;;;-1.72;74.95
70323;BME280;57735;56.264;43.898;2022-12-18T07:32:30;99733.06;;;-1.79;75.04
70323;BME280;57735;56.264;43.898;2022-12-18T07:35:00;99734.00;;;-1.80;75.18
70323;BME280;57735;56.264;43.898;2022-12-18T07:37:33;99728.78;;;-1.80;75.42
70323;BME280;57735;56.264;43.898;2022-12-18T07:40:04;99738.38;;;-1.81;75.83
70323;BME280;57735;56.264;43.898;2022-12-18T07:42:35;99734.66;;;-1.77;75.69
70323;BME280;57735;56.264;43.898;2022-12-18T07:45:10;99730.28;;;-1.76;75.76
70323;BME280;57735;56.264;43.898;2022-12-18T07:47:41;99729.44;;;-1.77;75.78
70323;BME280;57735;56.264;43.898;2022-12-18T07:50:15;99725.06;;;-1.76;76.06
70323;BME280;57735;56.264;43.898;2022-12-18T07:52:46;99710.06;;;-1.72;76.24
70323;BME280;57735;56.264;43.898;2022-12-18T07:55:17;99712.41;;;-1.68;76.09
70323;BME280;57735;56.264;43.898;2022-12-18T07:57:47;99715.81;;;-1.67;76.09
70323;BME280;57735;56.264;43.898;2022-12-18T08:00:18;99703.50;;;-1.65;76.04
70323;BME280;57735;56.264;43.898;2022-12-18T08:02:49;99703.50;;;-1.65;75.85
70323;BME280;57735;56.264;43.898;2022-12-18T08:05:20;99707.72;;;-1.63;75.61
70323;BME280;57735;56.264;43.898;2022-12-18T08:07:51;99711.06;;;-1.61;75.39
70323;BME280;57735;56.264;43.898;2022-12-18T08:10:22;99711.34;;;-1.65;74.94
70323;BME280;57735;56.264;43.898;2022-12-18T08:12:55;99710.06;;;-1.72;75.40
70323;BME280;57735;56.264;43.898;2022-12-18T08:15:26;99700.81;;;-1.78;75.40
70323;BME280;57735;56.264;43.898;2022-12-18T08:17:57;99703.69;;;-1.83;75.48
70323;BME280;57735;56.264;43.898;2022-12-18T08:20:30;99701.06;;;-1.83;75.83
70323;BME280;57735;56.264;43.898;2022-12-18T08:23:01;99707.44;;;-1.87;75.30
70323;BME280;57735;56.264;43.898;2022-12-18T08:25:32;99714.03;;;-1.95;75.38
70323;BME280;57735;56.264;43.898;2022-12-18T08:28:04;99715.03;;;-1.98;75.99
70323;BME280;57735;56.264;43.898;2022-12-18T08:30:35;99712.59;;;-2.01;75.80
70323;BME280;57735;56.264;43.898;2022-12-18T08:33:08;99707.09;;;-2.11;75.82
70323;BME280;57735;56.264;43.898;2022-12-18T08:35:39;99718.19;;;-2.21;76.29
70323;BME280;57735;56.264;43.898;2022-12-18T08:38:10;99731.16;;;-2.20;76.65
70323;BME280;57735;56.264;43.898;2022-12-18T08:40:41;99724.34;;;-2.22;76.70
70323;BME280;57735;56.264;43.898;2022-12-18T08:43:12;99729.81;;;-2.27;76.64
70323;BME280;57735;56.264;43.898;2022-12-18T08:46:01;99731.94;;;-2.33;76.91
70323;BME280;57735;56.264;43.898;2022-12-18T08:48:32;99733.59;;;-2.32;76.70
70323;BME280;57735;56.264;43.898;2022-12-18T08:51:03;99736.44;;;-2.35;76.86
70323;BME280;57735;56.264;43.898;2022-12-18T08:53:41;99735.47;;;-2.34;76.81
70323;BME280;57735;56.264;43.898;2022-12-18T08:56:13;99736.75;;;-2.41;76.54
70323;BME280;57735;56.264;43.898;2022-12-18T08:58:44;99730.03;;;-2.46;77.07
70323;BME280;57735;56.264;43.898;2022-12-18T09:01:15;99729.09;;;-2.44;77.21
70323;BME280;57735;56.264;43.898;2022-12-18T09:03:49;99728.09;;;-2.42;77.10
70323;BME280;57735;56.264;43.898;2022-12-18T09:06:21;99736.09;;;-2.45;76.98
70323;BME280;57735;56.264;43.898;2022-12-18T09:08:52;99738.78;;;-2.47;76.82
70323;BME280;57735;56.264;43.898;2022-12-18T09:11:26;99733.72;;;-2.50;76.66
70323;BME280;57735;56.264;43.898;2022-12-18T09:13:59;99741.00;;;-2.55;76.68
70323;BME280;57735;56.264;43.898;2022-12-18T09:16:31;99739.16;;;-2.53;76.78
70323;BME280;57735;56.264;43.898;2022-12-18T09:19:04;99737.09;;;-2.48;76.51
70323;BME280;57735;56.264;43.898;2022-12-18T09:21:38;99728.53;;;-2.50;76.12
70323;BME280;57735;56.264;43.898;2022-12-18T09:24:13;99732.06;;;-2.51;76.04
70323;BME280;57735;56.264;43.898;2022-12-18T09:26:44;99737.19;;;-2.49;75.91
70323;BME280;57735;56.264;43.898;2022-12-18T09:29:15;99737.63;;;-2.57;75.89
70323;BME280;57735;56.264;43.898;2022-12-18T09:31:46;99743.78;;;-2.58;76.12
70323;BME280;57735;56.264;43.898;2022-12-18T09:34:17;99737.47;;;-2.54;76.35
70323;BME280;57735;56.264;43.898;2022-12-18T09:36:51;99731.41;;;-2.54;75.94
70323;BME280;57735;56.264;43.898;2022-12-18T09:39:23;99739.25;;;-2.54;75.86
70323;BME280;57735;56.264;43.898;2022-12-18T09:41:56;99735.78;;;-2.55;76.01
70323;BME280;57735;56.264;43.898;2022-12-18T09:44:41;99740.47;;;-2.46;76.11
70323;BME280;57735;56.264;43.898;2022-12-18T09:50:00;99737.78;;;-2.44;75.36
70323;BME280;57735;56.264;43.898;2022-12-18T09:52:40;99741.13;;;-2.42;75.66
70323;BME280;57735;56.264;43.898;2022-12-18T09:55:25;99738.44;;;-2.40;75.36
70323;BME280;57735;56.264;43.898;2022-12-18T10:01:15;99749.75;;;-2.56;74.68
70323;BME280;57735;56.264;43.898;2022-12-18T10:03:52;99749.16;;;-2.61;75.03
70323;BME280;57735;56.264;43.898;2022-12-18T10:06:43;99758.16;;;-2.66;75.02
70323;BME280;57735;56.264;43.898;2022-12-18T10:09:36;99754.31;;;-2.59;75.29
70323;BME280;57735;56.264;43.898;2022-12-18T10:15:13;99751.44;;;-2.55;74.91
70323;BME280;57735;56.264;43.898;2022-12-18T10:20:48;99766.34;;;-2.57;75.05
70323;BME280;57735;56.264;43.898;2022-12-18T10:26:15;99772.31;;;-2.55;74.99
70323;BME280;57735;56.264;43.898;2022-12-18T10:28:46;99769.28;;;-2.63;74.68
70323;BME280;57735;56.264;43.898;2022-12-18T10:31:20;99780.56;;;-2.62;74.91
70323;BME280;57735;56.264;43.898;2022-12-18T10:33:53;99788.13;;;-2.58;75.37
70323;BME280;57735;56.264;43.898;2022-12-18T10:36:26;99792.75;;;-2.63;74.61
70323;BME280;57735;56.264;43.898;2022-12-18T10:39:21;99796.44;;;-2.67;74.60
70323;BME280;57735;56.264;43.898;2022-12-18T10:42:20;99799.25;;;-2.70;74.68
70323;BME280;57735;56.264;43.898;2022-12-18T10:45:03;99802.09;;;-2.74;74.74
70323;BME280;57735;56.264;43.898;2022-12-18T10:47:36;99805.88;;;-2.80;74.48
70323;BME280;57735;56.264;43.898;2022-12-18T10:50:32;99803.78;;;-2.89;74.33
70323;BME280;57735;56.264;43.898;2022-12-18T10:53:04;99817.00;;;-2.92;74.60
70323;BME280;57735;56.264;43.898;2022-12-18T10:55:38;99813.38;;;-2.90;74.54
70323;BME280;57735;56.264;43.898;2022-12-18T10:58:37;99813.53;;;-2.93;74.35
70323;BME280;57735;56.264;43.898;2022-12-18T11:01:16;99811.50;;;-3.03;73.82
70323;BME280;57735;56.264;43.898;2022-12-18T11:04:08;99804.84;;;-3.09;74.37
70323;BME280;57735;56.264;43.898;2022-12-18T11:06:53;99798.19;;;-3.14;74.12
70323;BME280;57735;56.264;43.898;2022-12-18T11:09:30;99804.41;;;-3.17;74.16
70323;BME280;57735;56.264;43.898;2022-12-18T11:12:18;99814.34;;;-3.24;74.10
70323;BME280;57735;56.264;43.898;2022-12-18T11:14:54;99836.88;;;-3.23;74.26
70323;BME280;57735;56.264;43.898;2022-12-18T11:17:34;99825.91;;;-3.29;74.12
70323;BME280;57735;56.264;43.898;2022-12-18T11:23:10;99838.03;;;-3.45;73.99
70323;BME280;57735;56.264;43.898;2022-12-18T11:25:51;99834.16;;;-3.54;74.34
70323;BME280;57735;56.264;43.898;2022-12-18T11:28:38;99845.34;;;-3.52;74.46
70323;BME280;57735;56.264;43.898;2022-12-18T11:34:26;99847.63;;;-3.46;74.13
70323;BME280;57735;56.264;43.898;2022-12-18T11:36:55;99847.97;;;-3.52;74.05
70323;BME280;57735;56.264;43.898;2022-12-18T11:39:36;99857.06;;;-3.61;73.91
70323;BME280;57735;56.264;43.898;2022-12-18T11:42:17;99865.94;;;-3.65;74.14
70323;BME280;57735;56.264;43.898;2022-12-18T11:44:54;99875.53;;;-3.65;74.27
70323;BME280;57735;56.264;43.898;2022-12-18T11:50:53;99884.50;;;-3.71;74.27
70323;BME280;57735;56.264;43.898;2022-12-18T11:53:29;99893.16;;;-3.70;73.73
70323;BME280;57735;56.264;43.898;2022-12-18T12:04:15;99912.13;;;-3.68;73.63
70323;BME280;57735;56.264;43.898;2022-12-18T12:07:03;99922.72;;;-3.71;73.55
70323;BME280;57735;56.264;43.898;2022-12-18T12:12:41;99925.25;;;-3.70;73.44
70323;BME280;57735;56.264;43.898;2022-12-18T12:15:54;99938.34;;;-3.71;73.36
70323;BME280;57735;56.264;43.898;2022-12-18T12:18:54;99945.25;;;-3.70;73.44
70323;BME280;57735;56.264;43.898;2022-12-18T12:21:40;99951.38;;;-3.71;73.04
70323;BME280;57735;56.264;43.898;2022-12-18T12:24:28;99954.13;;;-3.74;73.04
70323;BME280;57735;56.264;43.898;2022-12-18T12:27:30;99957.69;;;-3.77;73.21
70323;BME280;57735;56.264;43.898;2022-12-18T12:39:24;99988.88;;;-3.75;73.47
70323;BME280;57735;56.264;43.898;2022-12-18T12:41:57;100000.41;;;-3.81;73.27
70323;BME280;57735;56.264;43.898;2022-12-18T12:44:51;100011.06;;;-3.85;73.65
70323;BME280;57735;56.264;43.898;2022-12-18T12:47:28;100028.78;;;-3.94;73.39
70323;BME280;57735;56.264;43.898;2022-12-18T12:50:04;100037.88;;;-4.02;73.53
70323;BME280;57735;56.264;43.898;2022-12-18T12:52:43;100042.50;;;-4.09;73.41
70323;BME280;57735;56.264;43.898;2022-12-18T12:55:22;100038.03;;;-4.05;73.75
70323;BME280;57735;56.264;43.898;2022-12-18T12:57:56;100039.00;;;-4.08;72.83
70323;BME280;57735;56.264;43.898;2022-12-18T13:03:54;100057.13;;;-4.25;72.91
70323;BME280;57735;56.264;43.898;2022-12-18T13:06:40;100059.81;;;-4.27;73.15
70323;BME280;57735;56.264;43.898;2022-12-18T13:09:16;100069.00;;;-4.38;72.66
70323;BME280;57735;56.264;43.898;2022-12-18T13:11:50;100065.69;;;-4.42;73.12
70323;BME280;57735;56.264;43.898;2022-12-18T13:14:40;100079.53;;;-4.41;73.38
70323;BME280;57735;56.264;43.898;2022-12-18T13:20:14;100097.75;;;-4.41;73.06
70323;BME280;57735;56.264;43.898;2022-12-18T13:22:48;100089.09;;;-4.42;73.12
70323;BME280;57735;56.264;43.898;2022-12-18T13:25:36;100108.88;;;-4.38;72.94
70323;BME280;57735;56.264;43.898;2022-12-18T13:30:49;100103.78;;;-4.41;72.75
70323;BME280;57735;56.264;43.898;2022-12-18T13:38:45;100112.69;;;-4.46;73.03
70323;BME280;57735;56.264;43.898;2022-12-18T13:43:55;100122.72;;;-4.58;73.06
70323;BME280;57735;56.264;43.898;2022-12-18T13:46:48;100119.28;;;-4.58;73.45
70323;BME280;57735;56.264;43.898;2022-12-18T13:49:28;100124.41;;;-4.57;72.76
70323;BME280;57735;56.264;43.898;2022-12-18T13:52:18;100147.22;;;-4.63;72.62
70323;BME280;57735;56.264;43.898;2022-12-18T13:54:53;100145.59;;;-4.66;72.88
70323;BME280;57735;56.264;43.898;2022-12-18T13:57:37;100143.03;;;-4.67;72.74
70323;BME280;57735;56.264;43.898;2022-12-18T14:00:28;100158.72;;;-4.69;72.53
70323;BME280;57735;56.264;43.898;2022-12-18T14:02:59;100170.69;;;-4.65;72.50
70323;BME280;57735;56.264;43.898;2022-12-18T14:05:36;100165.59;;;-4.68;72.48
70323;BME280;57735;56.264;43.898;2022-12-18T14:08:10;100178.75;;;-4.71;72.47
70323;BME280;57735;56.264;43.898;2022-12-18T14:10:44;100173.69;;;-4.74;72.51
70323;BME280;57735;56.264;43.898;2022-12-18T14:13:37;100178.81;;;-4.72;72.35
70323;BME280;57735;56.264;43.898;2022-12-18T14:16:14;100180.50;;;-4.71;72.26
70323;BME280;57735;56.264;43.898;2022-12-18T14:18:56;100186.00;;;-4.79;71.85
70323;BME280;57735;56.264;43.898;2022-12-18T14:21:29;100205.38;;;-4.86;71.60
70323;BME280;57735;56.264;43.898;2022-12-18T14:26:34;100207.19;;;-4.88;71.58
70323;BME280;57735;56.264;43.898;2022-12-18T14:29:27;100214.31;;;-4.93;71.19
70323;BME280;57735;56.264;43.898;2022-12-18T14:32:14;100215.22;;;-4.94;71.28
70323;BME280;57735;56.264;43.898;2022-12-18T14:34:52;100215.31;;;-4.97;70.83
70323;BME280;57735;56.264;43.898;2022-12-18T14:37:25;100221.13;;;-4.90;71.51
70323;BME280;57735;56.264;43.898;2022-12-18T14:39:59;100215.78;;;-4.86;70.73
70323;BME280;57735;56.264;43.898;2022-12-18T14:42:30;100216.72;;;-4.88;70.71
70323;BME280;57735;56.264;43.898;2022-12-18T14:45:32;100215.81;;;-4.87;70.44
70323;BME280;57735;56.264;43.898;2022-12-18T14:48:36;100223.81;;;-4.92;70.68